PWSweather.com
Personal Weather Stations
Station Observations
KTXROWLE6
Ravens Nest, Rowlett, TX 75089

Ravens NestRowlett, TX 75089

Lat: 32.93105, Lon: -96.57368

Elevation: 556

Station Type: Davis Vantage Pro2 6152

http://rowlett.ws

Latest ConditionsUpdated 10:35:05 AM CST Sunday, Feb 1, 2015
Currently Today's Max Today's Min Today's Average
Temperature 55.8°F13.2°C 60.0°F15.6°C 54.1°F12.3°C 57.9°F14.4°C
Dew Point 51.6°F10.9°C 58.9°F14.9°C 51.6°F10.9°C 56.4°F13.6°C
Winds 10.0 mph NNW16.1 kmh NNW 15.0 mph NW24.1 kmh NW - 4.2 mph 6.8 kmh
Wind Gusts 14.0 mph22.5 kmh 17.0 mph27.4 kmh - -
Humidity 86% 97% 86% 95%
Pressure 29.98 in1015.2 mb 29.98 in1015.2 mb 29.87 in1011.5 mb -
Precipitation - 0.02 in0.5 mm - -
Hour Temp Dew Point Humidity Winds Wind Gusts Pressure Precip Precip Rate Daily Precip Total
10:35 AM 55.8°F13.2°C 51.6°F10.9°C 86% 10.0 mph NNW16.1 kmh NNW 14.0 mph22.5 kmh 29.98 in1015.2 mb 0.00 in0.0 mm 0.00 in/hr0.0 mm/hr 0.02 in0.5 mm
10:30 AM 55.9°F13.3°C 52.3°F11.3°C 88% 8.0 mph NW12.9 kmh NW 14.0 mph22.5 kmh 29.98 in1015.2 mb 0.00 in0.0 mm 0.00 in/hr0.0 mm/hr 0.02 in0.5 mm
10:25 AM 55.9°F13.3°C 52.3°F11.3°C 88% 4.0 mph NW6.4 kmh NW 10.0 mph16.1 kmh 29.97 in1014.9 mb 0.00 in0.0 mm 0.00 in/hr0.0 mm/hr 0.02 in0.5 mm
10:20 AM 56.0°F13.3°C 52.4°F11.3°C 88% 6.0 mph NNW9.7 kmh NNW 12.0 mph19.3 kmh 29.97 in1014.9 mb 0.00 in0.0 mm 0.00 in/hr0.0 mm/hr 0.02 in0.5 mm
10:15 AM 56.2°F13.4°C 52.3°F11.3°C 87% 10.0 mph N16.1 kmh N 14.0 mph22.5 kmh 29.96 in1014.6 mb 0.00 in0.0 mm 0.00 in/hr0.0 mm/hr 0.02 in0.5 mm
10:10 AM 56.9°F13.8°C 53.0°F11.7°C 87% 10.0 mph NNW16.1 kmh NNW 17.0 mph27.4 kmh 29.96 in1014.6 mb 0.00 in0.0 mm 0.00 in/hr0.0 mm/hr 0.02 in0.5 mm
10:05 AM 57.6°F14.2°C 54.0°F12.2°C 88% 7.0 mph NW11.3 kmh NW 13.0 mph20.9 kmh 29.95 in1014.2 mb 0.00 in0.0 mm 0.00 in/hr0.0 mm/hr 0.02 in0.5 mm
10:00 AM 57.8°F14.3°C 54.2°F12.3°C 88% 14.0 mph NW22.5 kmh NW 14.0 mph22.5 kmh 29.95 in1014.2 mb 0.00 in0.0 mm 0.00 in/hr0.0 mm/hr 0.02 in0.5 mm
09:55 AM 58.0°F14.4°C 54.4°F12.4°C 88% 10.0 mph NW16.1 kmh NW 14.0 mph22.5 kmh 29.95 in1014.2 mb 0.00 in0.0 mm 0.00 in/hr0.0 mm/hr 0.02 in0.5 mm
09:50 AM 58.2°F14.6°C 54.6°F12.6°C 88% 11.0 mph NW17.7 kmh NW 17.0 mph27.4 kmh 29.94 in1013.9 mb 0.00 in0.0 mm 0.00 in/hr0.0 mm/hr 0.02 in0.5 mm
09:45 AM 58.4°F14.7°C 54.8°F12.7°C 88% 15.0 mph NW24.1 kmh NW 15.0 mph24.1 kmh 29.94 in1013.9 mb 0.00 in0.0 mm 0.00 in/hr0.0 mm/hr 0.02 in0.5 mm
09:40 AM 58.5°F14.7°C 55.2°F12.9°C 89% 12.0 mph NW19.3 kmh NW 14.0 mph22.5 kmh 29.93 in1013.5 mb 0.00 in0.0 mm 0.00 in/hr0.0 mm/hr 0.02 in0.5 mm
09:35 AM 58.7°F14.8°C 55.7°F13.2°C 90% 4.0 mph NW6.4 kmh NW 13.0 mph20.9 kmh 29.94 in1013.9 mb 0.00 in0.0 mm 0.00 in/hr0.0 mm/hr 0.02 in0.5 mm
09:30 AM 58.7°F14.8°C 56.0°F13.3°C 91% 11.0 mph NW17.7 kmh NW 14.0 mph22.5 kmh 29.93 in1013.5 mb 0.00 in0.0 mm 0.00 in/hr0.0 mm/hr 0.02 in0.5 mm
09:25 AM 58.8°F14.9°C 56.4°F13.6°C 92% 7.0 mph NW11.3 kmh NW 14.0 mph22.5 kmh 29.93 in1013.5 mb 0.00 in0.0 mm 0.00 in/hr0.0 mm/hr 0.02 in0.5 mm
09:20 AM 58.8°F14.9°C 56.4°F13.6°C 92% 5.0 mph NW8.0 kmh NW 11.0 mph17.7 kmh 29.93 in1013.5 mb 0.01 in0.3 mm 0.00 in/hr0.0 mm/hr 0.02 in0.5 mm
09:15 AM 58.8°F14.9°C 56.4°F13.6°C 92% 5.0 mph NW8.0 kmh NW 10.0 mph16.1 kmh 29.92 in1013.2 mb 0.01 in0.3 mm 0.00 in/hr0.0 mm/hr 0.02 in0.5 mm
09:10 AM 58.8°F14.9°C 56.7°F13.7°C 93% 5.0 mph NW8.0 kmh NW 8.0 mph12.9 kmh 29.92 in1013.2 mb 0.01 in0.3 mm 0.00 in/hr0.0 mm/hr 0.02 in0.5 mm
09:05 AM 58.8°F14.9°C 56.7°F13.7°C 93% 5.0 mph NW8.0 kmh NW 9.0 mph14.5 kmh 29.92 in1013.2 mb 0.01 in0.3 mm 0.00 in/hr0.0 mm/hr 0.02 in0.5 mm
09:00 AM 58.8°F14.9°C 56.7°F13.7°C 93% 10.0 mph NW16.1 kmh NW 10.0 mph16.1 kmh 29.92 in1013.2 mb 0.01 in0.3 mm 0.00 in/hr0.0 mm/hr 0.02 in0.5 mm
08:55 AM 58.7°F14.8°C 56.9°F13.8°C 94% 10.0 mph WNW16.1 kmh WNW 12.0 mph19.3 kmh 29.92 in1013.2 mb 0.01 in0.3 mm 0.00 in/hr0.0 mm/hr 0.02 in0.5 mm
08:50 AM 58.7°F14.8°C 56.9°F13.8°C 94% 6.0 mph NW9.7 kmh NW 7.0 mph11.3 kmh 29.92 in1013.2 mb 0.01 in0.3 mm 0.00 in/hr0.0 mm/hr 0.02 in0.5 mm
08:45 AM 58.7°F14.8°C 56.9°F13.8°C 94% 6.0 mph NW9.7 kmh NW 9.0 mph14.5 kmh 29.92 in1013.2 mb 0.01 in0.3 mm 0.00 in/hr0.0 mm/hr 0.02 in0.5 mm
08:40 AM 58.6°F14.8°C 57.1°F13.9°C 95% 4.0 mph NW6.4 kmh NW 9.0 mph14.5 kmh 29.91 in1012.9 mb 0.01 in0.3 mm 0.00 in/hr0.0 mm/hr 0.02 in0.5 mm
08:35 AM 58.6°F14.8°C 57.1°F13.9°C 95% 6.0 mph WNW9.7 kmh WNW 9.0 mph14.5 kmh 29.91 in1012.9 mb 0.01 in0.3 mm 0.00 in/hr0.0 mm/hr 0.02 in0.5 mm
08:30 AM 58.6°F14.8°C 57.1°F13.9°C 95% 5.0 mph NW8.0 kmh NW 9.0 mph14.5 kmh 29.91 in1012.9 mb 0.01 in0.3 mm 0.00 in/hr0.0 mm/hr 0.02 in0.5 mm
08:25 AM 58.7°F14.8°C 57.2°F14.0°C 95% 3.0 mph NW4.8 kmh NW 9.0 mph14.5 kmh 29.91 in1012.9 mb 0.01 in0.3 mm 0.12 in/hr3.0 mm/hr 0.02 in0.5 mm
08:20 AM 58.8°F14.9°C 57.3°F14.1°C 95% 5.0 mph NW8.0 kmh NW 10.0 mph16.1 kmh 29.91 in1012.9 mb 0.00 in0.0 mm 0.00 in/hr0.0 mm/hr 0.01 in0.3 mm
08:15 AM 58.9°F14.9°C 57.4°F14.1°C 95% 5.0 mph NW8.0 kmh NW 11.0 mph17.7 kmh 29.91 in1012.9 mb 0.00 in0.0 mm 0.00 in/hr0.0 mm/hr 0.01 in0.3 mm
08:10 AM 59.1°F15.1°C 57.6°F14.2°C 95% 7.0 mph NW11.3 kmh NW 11.0 mph17.7 kmh 29.91 in1012.9 mb 0.00 in0.0 mm 0.00 in/hr0.0 mm/hr 0.01 in0.3 mm
08:05 AM 59.6°F15.3°C 58.1°F14.5°C 95% 6.0 mph NW9.7 kmh NW 16.0 mph25.7 kmh 29.91 in1012.9 mb 0.00 in0.0 mm 0.00 in/hr0.0 mm/hr 0.01 in0.3 mm
08:00 AM 60.0°F15.6°C 58.8°F14.9°C 96% 8.0 mph NW12.9 kmh NW 17.0 mph27.4 kmh 29.90 in1012.5 mb 0.00 in0.0 mm 0.00 in/hr0.0 mm/hr 0.01 in0.3 mm
07:55 AM 59.9°F15.5°C 58.7°F14.8°C 96% 6.0 mph WSW9.7 kmh WSW 12.0 mph19.3 kmh 29.90 in1012.5 mb 0.00 in0.0 mm 0.00 in/hr0.0 mm/hr 0.01 in0.3 mm
07:50 AM 59.9°F15.5°C 58.7°F14.8°C 96% 6.0 mph WNW9.7 kmh WNW 11.0 mph17.7 kmh 29.89 in1012.2 mb 0.00 in0.0 mm 0.00 in/hr0.0 mm/hr 0.01 in0.3 mm
07:45 AM 59.8°F15.4°C 58.9°F14.9°C 97% 4.0 mph W6.4 kmh W 10.0 mph16.1 kmh 29.89 in1012.2 mb 0.00 in0.0 mm 0.00 in/hr0.0 mm/hr 0.01 in0.3 mm
07:40 AM 59.8°F15.4°C 58.9°F14.9°C 97% 4.0 mph W6.4 kmh W 8.0 mph12.9 kmh 29.89 in1012.2 mb 0.00 in0.0 mm 0.00 in/hr0.0 mm/hr 0.01 in0.3 mm
07:35 AM 59.8°F15.4°C 58.9°F14.9°C 97% 5.0 mph WSW8.0 kmh WSW 8.0 mph12.9 kmh 29.89 in1012.2 mb 0.00 in0.0 mm 0.00 in/hr0.0 mm/hr 0.01 in0.3 mm
07:30 AM 59.7°F15.4°C 58.8°F14.9°C 97% 3.0 mph W4.8 kmh W 6.0 mph9.7 kmh 29.89 in1012.2 mb 0.00 in0.0 mm 0.00 in/hr0.0 mm/hr 0.01 in0.3 mm
07:25 AM 59.7°F15.4°C 58.8°F14.9°C 97% 3.0 mph WSW4.8 kmh WSW 6.0 mph9.7 kmh 29.89 in1012.2 mb 0.00 in0.0 mm 0.00 in/hr0.0 mm/hr 0.01 in0.3 mm
07:20 AM 59.6°F15.3°C 58.7°F14.8°C 97% 5.0 mph SSW8.0 kmh SSW 5.0 mph8.0 kmh 29.88 in1011.9 mb 0.00 in0.0 mm 0.00 in/hr0.0 mm/hr 0.01 in0.3 mm
07:15 AM 59.6°F15.3°C 58.7°F14.8°C 97% 3.0 mph SSW4.8 kmh SSW 6.0 mph9.7 kmh 29.88 in1011.9 mb 0.00 in0.0 mm 0.00 in/hr0.0 mm/hr 0.01 in0.3 mm
07:10 AM 59.5°F15.3°C 58.6°F14.8°C 97% 1.0 mph SSW1.6 kmh SSW 6.0 mph9.7 kmh 29.88 in1011.9 mb 0.00 in0.0 mm 0.00 in/hr0.0 mm/hr 0.01 in0.3 mm
07:05 AM 59.5°F15.3°C 58.6°F14.8°C 97% 2.0 mph SSW3.2 kmh SSW 5.0 mph8.0 kmh 29.88 in1011.9 mb 0.00 in0.0 mm 0.00 in/hr0.0 mm/hr 0.01 in0.3 mm
07:00 AM 59.4°F15.2°C 58.5°F14.7°C 97% 5.0 mph SSW8.0 kmh SSW 6.0 mph9.7 kmh 29.87 in1011.5 mb 0.00 in0.0 mm 0.00 in/hr0.0 mm/hr 0.01 in0.3 mm
06:55 AM 59.4°F15.2°C 58.5°F14.7°C 97% 1.0 mph SSW1.6 kmh SSW 3.0 mph4.8 kmh 29.87 in1011.5 mb 0.00 in0.0 mm 0.00 in/hr0.0 mm/hr 0.01 in0.3 mm
06:50 AM 59.4°F15.2°C 58.5°F14.7°C 97% Calm Calm 4.0 mph6.4 kmh 29.87 in1011.5 mb 0.00 in0.0 mm 0.00 in/hr0.0 mm/hr 0.01 in0.3 mm
06:45 AM 59.4°F15.2°C 58.5°F14.7°C 97% Calm Calm 4.0 mph6.4 kmh 29.87 in1011.5 mb 0.00 in0.0 mm 0.00 in/hr0.0 mm/hr 0.01 in0.3 mm
06:40 AM 59.5°F15.3°C 58.6°F14.8°C 97% Calm Calm 4.0 mph6.4 kmh 29.87 in1011.5 mb 0.00 in0.0 mm 0.00 in/hr0.0 mm/hr 0.01 in0.3 mm
06:35 AM 59.5°F15.3°C 58.6°F14.8°C 97% Calm Calm 4.0 mph6.4 kmh 29.87 in1011.5 mb 0.00 in0.0 mm 0.00 in/hr0.0 mm/hr 0.01 in0.3 mm
06:30 AM 59.5°F15.3°C 58.6°F14.8°C 97% 1.0 mph SSW1.6 kmh SSW 4.0 mph6.4 kmh 29.87 in1011.5 mb 0.00 in0.0 mm 0.00 in/hr0.0 mm/hr 0.01 in0.3 mm
06:25 AM 59.4°F15.2°C 58.5°F14.7°C 97% Calm Calm 3.0 mph4.8 kmh 29.87 in1011.5 mb 0.00 in0.0 mm 0.00 in/hr0.0 mm/hr 0.01 in0.3 mm
06:20 AM 59.4°F15.2°C 58.5°F14.7°C 97% 3.0 mph SSW4.8 kmh SSW 4.0 mph6.4 kmh 29.87 in1011.5 mb 0.00 in0.0 mm 0.00 in/hr0.0 mm/hr 0.01 in0.3 mm
06:15 AM 59.4°F15.2°C 58.5°F14.7°C 97% 2.0 mph SSW3.2 kmh SSW 4.0 mph6.4 kmh 29.87 in1011.5 mb 0.00 in0.0 mm 0.00 in/hr0.0 mm/hr 0.01 in0.3 mm
06:10 AM 59.4°F15.2°C 58.5°F14.7°C 97% 3.0 mph SSW4.8 kmh SSW 5.0 mph8.0 kmh 29.87 in1011.5 mb 0.00 in0.0 mm 0.00 in/hr0.0 mm/hr 0.01 in0.3 mm
06:05 AM 59.4°F15.2°C 58.5°F14.7°C 97% Calm Calm 3.0 mph4.8 kmh 29.87 in1011.5 mb 0.00 in0.0 mm 0.00 in/hr0.0 mm/hr 0.01 in0.3 mm
06:00 AM 59.4°F15.2°C 58.5°F14.7°C 97% 3.0 mph SSW4.8 kmh SSW 4.0 mph6.4 kmh 29.87 in1011.5 mb 0.00 in0.0 mm 0.00 in/hr0.0 mm/hr 0.01 in0.3 mm
05:55 AM 59.4°F15.2°C 58.5°F14.7°C 97% 3.0 mph SSW4.8 kmh SSW 5.0 mph8.0 kmh 29.87 in1011.5 mb 0.00 in0.0 mm 0.00 in/hr0.0 mm/hr 0.01 in0.3 mm
05:50 AM 59.4°F15.2°C 58.5°F14.7°C 97% 1.0 mph SSW1.6 kmh SSW 7.0 mph11.3 kmh 29.87 in1011.5 mb 0.00 in0.0 mm 0.00 in/hr0.0 mm/hr 0.01 in0.3 mm
05:45 AM 59.4°F15.2°C 58.5°F14.7°C 97% 3.0 mph S4.8 kmh S 4.0 mph6.4 kmh 29.87 in1011.5 mb 0.00 in0.0 mm 0.00 in/hr0.0 mm/hr 0.01 in0.3 mm
05:40 AM 59.4°F15.2°C 58.5°F14.7°C 97% 2.0 mph S3.2 kmh S 4.0 mph6.4 kmh 29.87 in1011.5 mb 0.00 in0.0 mm 0.00 in/hr0.0 mm/hr 0.01 in0.3 mm
05:35 AM 59.4°F15.2°C 58.5°F14.7°C 97% Calm Calm 4.0 mph6.4 kmh 29.87 in1011.5 mb 0.00 in0.0 mm 0.00 in/hr0.0 mm/hr 0.01 in0.3 mm
05:30 AM 59.4°F15.2°C 58.5°F14.7°C 97% 2.0 mph S3.2 kmh S 5.0 mph8.0 kmh 29.87 in1011.5 mb 0.00 in0.0 mm 0.00 in/hr0.0 mm/hr 0.01 in0.3 mm
05:25 AM 59.4°F15.2°C 58.5°F14.7°C 97% 3.0 mph S4.8 kmh S 4.0 mph6.4 kmh 29.87 in1011.5 mb 0.00 in0.0 mm 0.00 in/hr0.0 mm/hr 0.01 in0.3 mm
05:20 AM 59.4°F15.2°C 58.5°F14.7°C 97% 1.0 mph S1.6 kmh S 5.0 mph8.0 kmh 29.87 in1011.5 mb 0.00 in0.0 mm 0.00 in/hr0.0 mm/hr 0.01 in0.3 mm
05:15 AM 59.3°F15.2°C 58.4°F14.7°C 97% Calm Calm 5.0 mph8.0 kmh 29.87 in1011.5 mb 0.00 in0.0 mm 0.00 in/hr0.0 mm/hr 0.01 in0.3 mm
05:10 AM 59.3°F15.2°C 58.4°F14.7°C 97% Calm Calm 4.0 mph6.4 kmh 29.87 in1011.5 mb 0.00 in0.0 mm 0.00 in/hr0.0 mm/hr 0.01 in0.3 mm
05:05 AM 59.3°F15.2°C 58.4°F14.7°C 97% Calm Calm 9.0 mph14.5 kmh 29.87 in1011.5 mb 0.00 in0.0 mm 0.00 in/hr0.0 mm/hr 0.01 in0.3 mm
05:00 AM 59.3°F15.2°C 58.4°F14.7°C 97% 4.0 mph SW6.4 kmh SW 11.0 mph17.7 kmh 29.87 in1011.5 mb 0.00 in0.0 mm 0.00 in/hr0.0 mm/hr 0.01 in0.3 mm
04:55 AM 59.2°F15.1°C 58.3°F14.6°C 97% 3.0 mph SW4.8 kmh SW 7.0 mph11.3 kmh 29.87 in1011.5 mb 0.00 in0.0 mm 0.00 in/hr0.0 mm/hr 0.01 in0.3 mm
04:50 AM 59.1°F15.1°C 58.2°F14.6°C 97% 4.0 mph SW6.4 kmh SW 4.0 mph6.4 kmh 29.87 in1011.5 mb 0.00 in0.0 mm 0.00 in/hr0.0 mm/hr 0.01 in0.3 mm
04:45 AM 59.1°F15.1°C 58.2°F14.6°C 97% Calm Calm 6.0 mph9.7 kmh 29.87 in1011.5 mb 0.00 in0.0 mm 0.00 in/hr0.0 mm/hr 0.01 in0.3 mm
04:40 AM 59.1°F15.1°C 58.2°F14.6°C 97% 2.0 mph SW3.2 kmh SW 7.0 mph11.3 kmh 29.87 in1011.5 mb 0.00 in0.0 mm 0.00 in/hr0.0 mm/hr 0.01 in0.3 mm
04:35 AM 59.1°F15.1°C 58.2°F14.6°C 97% 5.0 mph SW8.0 kmh SW 8.0 mph12.9 kmh 29.87 in1011.5 mb 0.00 in0.0 mm 0.00 in/hr0.0 mm/hr 0.01 in0.3 mm
04:30 AM 59.0°F15.0°C 58.1°F14.5°C 97% 3.0 mph SW4.8 kmh SW 8.0 mph12.9 kmh 29.87 in1011.5 mb 0.00 in0.0 mm 0.00 in/hr0.0 mm/hr 0.01 in0.3 mm
04:25 AM 59.0°F15.0°C 58.1°F14.5°C 97% Calm Calm 8.0 mph12.9 kmh 29.87 in1011.5 mb 0.00 in0.0 mm 0.00 in/hr0.0 mm/hr 0.01 in0.3 mm
04:20 AM 59.0°F15.0°C 58.1°F14.5°C 97% 1.0 mph S1.6 kmh S 8.0 mph12.9 kmh 29.87 in1011.5 mb 0.00 in0.0 mm 0.00 in/hr0.0 mm/hr 0.01 in0.3 mm
04:15 AM 58.9°F14.9°C 58.0°F14.4°C 97% 7.0 mph SW11.3 kmh SW 7.0 mph11.3 kmh 29.87 in1011.5 mb 0.00 in0.0 mm 0.00 in/hr0.0 mm/hr 0.01 in0.3 mm
04:10 AM 58.9°F14.9°C 58.0°F14.4°C 97% 2.0 mph SW3.2 kmh SW 8.0 mph12.9 kmh 29.87 in1011.5 mb 0.00 in0.0 mm 0.00 in/hr0.0 mm/hr 0.01 in0.3 mm
04:05 AM 58.8°F14.9°C 57.9°F14.4°C 97% 4.0 mph SW6.4 kmh SW 8.0 mph12.9 kmh 29.87 in1011.5 mb 0.00 in0.0 mm 0.00 in/hr0.0 mm/hr 0.01 in0.3 mm
04:00 AM 58.8°F14.9°C 57.9°F14.4°C 97% 1.0 mph SW1.6 kmh SW 10.0 mph16.1 kmh 29.88 in1011.9 mb 0.00 in0.0 mm 0.00 in/hr0.0 mm/hr 0.01 in0.3 mm
03:55 AM 58.7°F14.8°C 57.8°F14.3°C 97% 5.0 mph SW8.0 kmh SW 11.0 mph17.7 kmh 29.88 in1011.9 mb 0.00 in0.0 mm 0.00 in/hr0.0 mm/hr 0.01 in0.3 mm
03:50 AM 58.6°F14.8°C 57.7°F14.3°C 97% 3.0 mph SSW4.8 kmh SSW 7.0 mph11.3 kmh 29.87 in1011.5 mb 0.00 in0.0 mm 0.00 in/hr0.0 mm/hr 0.01 in0.3 mm
03:45 AM 58.6°F14.8°C 57.7°F14.3°C 97% 3.0 mph SW4.8 kmh SW 9.0 mph14.5 kmh 29.88 in1011.9 mb 0.00 in0.0 mm 0.00 in/hr0.0 mm/hr 0.01 in0.3 mm
03:40 AM 58.5°F14.7°C 57.6°F14.2°C 97% 3.0 mph SW4.8 kmh SW 8.0 mph12.9 kmh 29.88 in1011.9 mb 0.00 in0.0 mm 0.00 in/hr0.0 mm/hr 0.01 in0.3 mm
03:35 AM 58.4°F14.7°C 57.5°F14.2°C 97% 4.0 mph SW6.4 kmh SW 7.0 mph11.3 kmh 29.88 in1011.9 mb 0.00 in0.0 mm 0.00 in/hr0.0 mm/hr 0.01 in0.3 mm
03:30 AM 58.4°F14.7°C 57.5°F14.2°C 97% 4.0 mph S6.4 kmh S 7.0 mph11.3 kmh 29.88 in1011.9 mb 0.00 in0.0 mm 0.00 in/hr0.0 mm/hr 0.01 in0.3 mm
03:25 AM 58.2°F14.6°C 57.3°F14.1°C 97% 5.0 mph WSW8.0 kmh WSW 8.0 mph12.9 kmh 29.88 in1011.9 mb 0.00 in0.0 mm 0.00 in/hr0.0 mm/hr 0.01 in0.3 mm
03:20 AM 58.1°F14.5°C 57.2°F14.0°C 97% 6.0 mph SSW9.7 kmh SSW 7.0 mph11.3 kmh 29.88 in1011.9 mb 0.00 in0.0 mm 0.00 in/hr0.0 mm/hr 0.01 in0.3 mm
03:15 AM 57.9°F14.4°C 57.0°F13.9°C 97% 2.0 mph S3.2 kmh S 6.0 mph9.7 kmh 29.88 in1011.9 mb 0.00 in0.0 mm 0.00 in/hr0.0 mm/hr 0.01 in0.3 mm
03:10 AM 57.7°F14.3°C 56.8°F13.8°C 97% 2.0 mph SW3.2 kmh SW 7.0 mph11.3 kmh 29.89 in1012.2 mb 0.00 in0.0 mm 0.00 in/hr0.0 mm/hr 0.01 in0.3 mm
03:05 AM 57.6°F14.2°C 56.7°F13.7°C 97% 7.0 mph SW11.3 kmh SW 9.0 mph14.5 kmh 29.89 in1012.2 mb 0.01 in0.3 mm 0.00 in/hr0.0 mm/hr 0.01 in0.3 mm
03:00 AM 57.3°F14.1°C 56.4°F13.6°C 97% 1.0 mph SW1.6 kmh SW 7.0 mph11.3 kmh 29.89 in1012.2 mb 0.01 in0.3 mm 0.00 in/hr0.0 mm/hr 0.01 in0.3 mm
02:55 AM 57.0°F13.9°C 56.1°F13.4°C 97% 4.0 mph SSW6.4 kmh SSW 5.0 mph8.0 kmh 29.89 in1012.2 mb 0.01 in0.3 mm 0.00 in/hr0.0 mm/hr 0.01 in0.3 mm
02:50 AM 56.9°F13.8°C 56.0°F13.3°C 97% Calm Calm 6.0 mph9.7 kmh 29.89 in1012.2 mb 0.01 in0.3 mm 0.00 in/hr0.0 mm/hr 0.01 in0.3 mm
02:45 AM 56.7°F13.7°C 55.5°F13.1°C 96% 6.0 mph SW9.7 kmh SW 8.0 mph12.9 kmh 29.89 in1012.2 mb 0.01 in0.3 mm 0.00 in/hr0.0 mm/hr 0.01 in0.3 mm
02:40 AM 56.5°F13.6°C 55.3°F12.9°C 96% Calm Calm 6.0 mph9.7 kmh 29.89 in1012.2 mb 0.01 in0.3 mm 0.00 in/hr0.0 mm/hr 0.01 in0.3 mm
02:35 AM 56.3°F13.5°C 55.1°F12.8°C 96% Calm Calm 5.0 mph8.0 kmh 29.89 in1012.2 mb 0.01 in0.3 mm 0.00 in/hr0.0 mm/hr 0.01 in0.3 mm
02:30 AM 56.2°F13.4°C 55.0°F12.8°C 96% 1.0 mph WSW1.6 kmh WSW 5.0 mph8.0 kmh 29.90 in1012.5 mb 0.01 in0.3 mm 0.00 in/hr0.0 mm/hr 0.01 in0.3 mm
02:25 AM 56.1°F13.4°C 54.9°F12.7°C 96% 2.0 mph WSW3.2 kmh WSW 4.0 mph6.4 kmh 29.90 in1012.5 mb 0.01 in0.3 mm 0.00 in/hr0.0 mm/hr 0.01 in0.3 mm
02:20 AM 56.1°F13.4°C 54.9°F12.7°C 96% 2.0 mph WSW3.2 kmh WSW 7.0 mph11.3 kmh 29.90 in1012.5 mb 0.01 in0.3 mm 0.00 in/hr0.0 mm/hr 0.01 in0.3 mm
02:15 AM 55.9°F13.3°C 54.7°F12.6°C 96% 5.0 mph SW8.0 kmh SW 7.0 mph11.3 kmh 29.90 in1012.5 mb 0.01 in0.3 mm 0.00 in/hr0.0 mm/hr 0.01 in0.3 mm
02:10 AM 55.8°F13.2°C 54.6°F12.6°C 96% 6.0 mph SSE9.7 kmh SSE 7.0 mph11.3 kmh 29.90 in1012.5 mb 0.01 in0.3 mm 0.12 in/hr3.0 mm/hr 0.01 in0.3 mm
02:05 AM 55.7°F13.2°C 54.5°F12.5°C 96% 7.0 mph W11.3 kmh W 9.0 mph14.5 kmh 29.92 in1013.2 mb 0.00 in0.0 mm 0.00 in/hr0.0 mm/hr 0.00 in0.0 mm
02:00 AM 55.7°F13.2°C 54.5°F12.5°C 96% Calm Calm 5.0 mph8.0 kmh 29.90 in1012.5 mb 0.00 in0.0 mm 0.00 in/hr0.0 mm/hr 0.00 in0.0 mm
01:55 AM 55.7°F13.2°C 54.5°F12.5°C 96% 5.0 mph S8.0 kmh S 6.0 mph9.7 kmh 29.90 in1012.5 mb 0.00 in0.0 mm 0.00 in/hr0.0 mm/hr 0.00 in0.0 mm
01:50 AM 55.6°F13.1°C 54.4°F12.4°C 96% 1.0 mph SSE1.6 kmh SSE 6.0 mph9.7 kmh 29.90 in1012.5 mb 0.00 in0.0 mm 0.00 in/hr0.0 mm/hr 0.00 in0.0 mm
01:45 AM 55.5°F13.1°C 54.3°F12.4°C 96% 4.0 mph S6.4 kmh S 5.0 mph8.0 kmh 29.90 in1012.5 mb 0.00 in0.0 mm 0.00 in/hr0.0 mm/hr 0.00 in0.0 mm
01:40 AM 55.5°F13.1°C 54.3°F12.4°C 96% 3.0 mph WSW4.8 kmh WSW 7.0 mph11.3 kmh 29.91 in1012.9 mb 0.00 in0.0 mm 0.00 in/hr0.0 mm/hr 0.00 in0.0 mm
01:35 AM 55.5°F13.1°C 54.3°F12.4°C 96% 3.0 mph WSW4.8 kmh WSW 7.0 mph11.3 kmh 29.91 in1012.9 mb 0.00 in0.0 mm 0.00 in/hr0.0 mm/hr 0.00 in0.0 mm
01:30 AM 55.5°F13.1°C 54.3°F12.4°C 96% 7.0 mph W11.3 kmh W 8.0 mph12.9 kmh 29.90 in1012.5 mb 0.00 in0.0 mm 0.00 in/hr0.0 mm/hr 0.00 in0.0 mm
01:25 AM 55.5°F13.1°C 54.3°F12.4°C 96% 4.0 mph WSW6.4 kmh WSW 9.0 mph14.5 kmh 29.91 in1012.9 mb 0.00 in0.0 mm 0.00 in/hr0.0 mm/hr 0.00 in0.0 mm
01:20 AM 55.3°F12.9°C 54.1°F12.3°C 96% 8.0 mph SW12.9 kmh SW 10.0 mph16.1 kmh 29.90 in1012.5 mb 0.00 in0.0 mm 0.00 in/hr0.0 mm/hr 0.00 in0.0 mm
01:15 AM 55.3°F12.9°C 54.1°F12.3°C 96% 1.0 mph SW1.6 kmh SW 10.0 mph16.1 kmh 29.90 in1012.5 mb 0.00 in0.0 mm 0.00 in/hr0.0 mm/hr 0.00 in0.0 mm
01:10 AM 55.3°F12.9°C 54.1°F12.3°C 96% 3.0 mph SW4.8 kmh SW 8.0 mph12.9 kmh 29.90 in1012.5 mb 0.00 in0.0 mm 0.00 in/hr0.0 mm/hr 0.00 in0.0 mm
01:05 AM 55.3°F12.9°C 54.1°F12.3°C 96% 4.0 mph SW6.4 kmh SW 9.0 mph14.5 kmh 29.90 in1012.5 mb 0.00 in0.0 mm 0.00 in/hr0.0 mm/hr 0.00 in0.0 mm
01:00 AM 55.2°F12.9°C 53.7°F12.1°C 95% 6.0 mph SE9.7 kmh SE 8.0 mph12.9 kmh 29.90 in1012.5 mb 0.00 in0.0 mm 0.00 in/hr0.0 mm/hr 0.00 in0.0 mm
12:55 AM 55.1°F12.8°C 53.6°F12.0°C 95% 5.0 mph S8.0 kmh S 8.0 mph12.9 kmh 29.90 in1012.5 mb 0.00 in0.0 mm 0.00 in/hr0.0 mm/hr 0.00 in0.0 mm
12:50 AM 55.1°F12.8°C 53.6°F12.0°C 95% 3.0 mph SE4.8 kmh SE 12.0 mph19.3 kmh 29.90 in1012.5 mb 0.00 in0.0 mm 0.00 in/hr0.0 mm/hr 0.00 in0.0 mm
12:45 AM 55.0°F12.8°C 53.5°F11.9°C 95% 7.0 mph SSE11.3 kmh SSE 14.0 mph22.5 kmh 29.90 in1012.5 mb 0.00 in0.0 mm 0.00 in/hr0.0 mm/hr 0.00 in0.0 mm
12:40 AM 54.9°F12.7°C 53.4°F11.9°C 95% 7.0 mph SSE11.3 kmh SSE 10.0 mph16.1 kmh 29.90 in1012.5 mb 0.00 in0.0 mm 0.00 in/hr0.0 mm/hr 0.00 in0.0 mm
12:35 AM 54.8°F12.7°C 53.3°F11.8°C 95% 5.0 mph SSE8.0 kmh SSE 11.0 mph17.7 kmh 29.90 in1012.5 mb 0.00 in0.0 mm 0.00 in/hr0.0 mm/hr 0.00 in0.0 mm
12:30 AM 54.7°F12.6°C 53.2°F11.8°C 95% 5.0 mph SSE8.0 kmh SSE 9.0 mph14.5 kmh 29.91 in1012.9 mb 0.00 in0.0 mm 0.00 in/hr0.0 mm/hr 0.00 in0.0 mm
12:25 AM 54.6°F12.6°C 53.1°F11.7°C 95% 2.0 mph S3.2 kmh S 10.0 mph16.1 kmh 29.91 in1012.9 mb 0.00 in0.0 mm 0.00 in/hr0.0 mm/hr 0.00 in0.0 mm
12:20 AM 54.6°F12.6°C 53.1°F11.7°C 95% 2.0 mph SSE3.2 kmh SSE 11.0 mph17.7 kmh 29.91 in1012.9 mb 0.00 in0.0 mm 0.00 in/hr0.0 mm/hr 0.00 in0.0 mm
12:15 AM 54.5°F12.5°C 53.0°F11.7°C 95% 4.0 mph S6.4 kmh S 11.0 mph17.7 kmh 29.91 in1012.9 mb 0.00 in0.0 mm 0.00 in/hr0.0 mm/hr 0.00 in0.0 mm
12:10 AM 54.4°F12.4°C 52.9°F11.6°C 95% 5.0 mph SE8.0 kmh SE 12.0 mph19.3 kmh 29.91 in1012.9 mb 0.00 in0.0 mm 0.00 in/hr0.0 mm/hr 0.00 in0.0 mm
12:05 AM 54.2°F12.3°C 52.7°F11.5°C 95% 9.0 mph SSE14.5 kmh SSE 14.0 mph22.5 kmh 29.91 in1012.9 mb 0.00 in0.0 mm 0.00 in/hr0.0 mm/hr 0.00 in0.0 mm
12:00 AM 54.1°F12.3°C 52.6°F11.4°C 95% 5.0 mph SE8.0 kmh SE 11.0 mph17.7 kmh 29.91 in1012.9 mb 0.00 in0.0 mm 0.00 in/hr0.0 mm/hr 0.01 in0.3 mm